sensor_id;sensor_type;location;lat;lon;timestamp;P1;durP1;ratioP1;P2;durP2;ratioP2
67965;SDS011;54749;47.850;9.002;2022-09-09T00:00:32;5.67;;;1.30;;
67965;SDS011;54749;47.850;9.002;2022-09-09T00:03:25;6.07;;;1.45;;
67965;SDS011;54749;47.850;9.002;2022-09-09T00:05:57;6.18;;;1.60;;
67965;SDS011;54749;47.850;9.002;2022-09-09T00:08:32;3.85;;;1.50;;
67965;SDS011;54749;47.850;9.002;2022-09-09T00:11:11;7.20;;;1.92;;
67965;SDS011;54749;47.850;9.002;2022-09-09T00:13:45;6.33;;;1.80;;
67965;SDS011;54749;47.850;9.002;2022-09-09T00:16:25;5.82;;;2.10;;
67965;SDS011;54749;47.850;9.002;2022-09-09T00:21:45;6.10;;;1.85;;
67965;SDS011;54749;47.850;9.002;2022-09-09T00:24:24;4.88;;;1.80;;
67965;SDS011;54749;47.850;9.002;2022-09-09T00:27:19;5.27;;;1.93;;
67965;SDS011;54749;47.850;9.002;2022-09-09T00:30:13;5.63;;;1.95;;
67965;SDS011;54749;47.850;9.002;2022-09-09T00:32:40;5.43;;;1.67;;
67965;SDS011;54749;47.850;9.002;2022-09-09T00:35:18;17.83;;;3.10;;
67965;SDS011;54749;47.850;9.002;2022-09-09T00:37:51;7.88;;;2.20;;
67965;SDS011;54749;47.850;9.002;2022-09-09T00:40:34;7.97;;;2.40;;
67965;SDS011;54749;47.850;9.002;2022-09-09T00:45:38;6.43;;;2.13;;
67965;SDS011;54749;47.850;9.002;2022-09-09T00:48:12;8.88;;;2.50;;
67965;SDS011;54749;47.850;9.002;2022-09-09T00:50:51;5.60;;;2.38;;
67965;SDS011;54749;47.850;9.002;2022-09-09T00:56:19;7.05;;;2.30;;
67965;SDS011;54749;47.850;9.002;2022-09-09T01:01:37;8.70;;;2.72;;
67965;SDS011;54749;47.850;9.002;2022-09-09T01:04:10;8.90;;;2.50;;
67965;SDS011;54749;47.850;9.002;2022-09-09T01:06:43;6.70;;;2.13;;
67965;SDS011;54749;47.850;9.002;2022-09-09T01:12:14;5.82;;;1.95;;
67965;SDS011;54749;47.850;9.002;2022-09-09T01:14:49;5.97;;;2.03;;
67965;SDS011;54749;47.850;9.002;2022-09-09T01:17:21;4.50;;;1.50;;
67965;SDS011;54749;47.850;9.002;2022-09-09T01:28:37;4.90;;;1.55;;
67965;SDS011;54749;47.850;9.002;2022-09-09T01:31:11;5.38;;;1.73;;
67965;SDS011;54749;47.850;9.002;2022-09-09T01:33:45;6.77;;;1.70;;
67965;SDS011;54749;47.850;9.002;2022-09-09T01:36:24;3.88;;;1.48;;
67965;SDS011;54749;47.850;9.002;2022-09-09T01:39:05;3.90;;;1.48;;
67965;SDS011;54749;47.850;9.002;2022-09-09T01:41:33;4.15;;;1.60;;
67965;SDS011;54749;47.850;9.002;2022-09-09T01:44:08;5.75;;;1.50;;
67965;SDS011;54749;47.850;9.002;2022-09-09T01:46:38;5.03;;;1.67;;
67965;SDS011;54749;47.850;9.002;2022-09-09T01:49:10;5.63;;;1.63;;
67965;SDS011;54749;47.850;9.002;2022-09-09T01:51:37;3.70;;;1.38;;
67965;SDS011;54749;47.850;9.002;2022-09-09T01:54:09;7.25;;;1.45;;
67965;SDS011;54749;47.850;9.002;2022-09-09T02:02:10;4.07;;;1.38;;
67965;SDS011;54749;47.850;9.002;2022-09-09T02:04:50;6.47;;;1.63;;
67965;SDS011;54749;47.850;9.002;2022-09-09T02:10:02;3.83;;;1.27;;
67965;SDS011;54749;47.850;9.002;2022-09-09T02:12:39;6.27;;;1.40;;
67965;SDS011;54749;47.850;9.002;2022-09-09T02:18:17;6.20;;;1.73;;
67965;SDS011;54749;47.850;9.002;2022-09-09T02:20:51;3.38;;;1.40;;
67965;SDS011;54749;47.850;9.002;2022-09-09T02:23:20;4.03;;;1.35;;
67965;SDS011;54749;47.850;9.002;2022-09-09T02:25:50;6.57;;;1.90;;
67965;SDS011;54749;47.850;9.002;2022-09-09T02:28:23;3.78;;;1.52;;
67965;SDS011;54749;47.850;9.002;2022-09-09T02:30:54;4.85;;;1.60;;
67965;SDS011;54749;47.850;9.002;2022-09-09T02:33:28;4.05;;;1.70;;
67965;SDS011;54749;47.850;9.002;2022-09-09T02:36:01;4.50;;;1.63;;
67965;SDS011;54749;47.850;9.002;2022-09-09T02:38:32;3.60;;;1.40;;
67965;SDS011;54749;47.850;9.002;2022-09-09T02:41:08;3.63;;;1.40;;
67965;SDS011;54749;47.850;9.002;2022-09-09T02:43:36;3.42;;;1.40;;
67965;SDS011;54749;47.850;9.002;2022-09-09T02:48:47;3.28;;;1.35;;
67965;SDS011;54749;47.850;9.002;2022-09-09T02:51:29;5.77;;;1.67;;
67965;SDS011;54749;47.850;9.002;2022-09-09T02:54:04;6.45;;;1.77;;
67965;SDS011;54749;47.850;9.002;2022-09-09T02:56:41;4.32;;;1.40;;
67965;SDS011;54749;47.850;9.002;2022-09-09T02:59:14;6.35;;;1.90;;
67965;SDS011;54749;47.850;9.002;2022-09-09T03:01:41;3.08;;;1.25;;
67965;SDS011;54749;47.850;9.002;2022-09-09T03:04:09;6.27;;;1.70;;
67965;SDS011;54749;47.850;9.002;2022-09-09T03:06:38;7.78;;;1.60;;
67965;SDS011;54749;47.850;9.002;2022-09-09T03:09:14;3.97;;;1.40;;
67965;SDS011;54749;47.850;9.002;2022-09-09T03:11:41;6.60;;;1.90;;
67965;SDS011;54749;47.850;9.002;2022-09-09T03:14:08;4.50;;;1.70;;
67965;SDS011;54749;47.850;9.002;2022-09-09T03:16:37;4.60;;;1.80;;
67965;SDS011;54749;47.850;9.002;2022-09-09T03:19:04;5.13;;;1.50;;
67965;SDS011;54749;47.850;9.002;2022-09-09T03:21:32;3.70;;;1.50;;
67965;SDS011;54749;47.850;9.002;2022-09-09T03:23:59;4.55;;;1.40;;
67965;SDS011;54749;47.850;9.002;2022-09-09T03:26:26;6.93;;;2.17;;
67965;SDS011;54749;47.850;9.002;2022-09-09T03:28:54;6.00;;;1.73;;
67965;SDS011;54749;47.850;9.002;2022-09-09T03:31:22;3.88;;;1.67;;
67965;SDS011;54749;47.850;9.002;2022-09-09T03:33:50;4.70;;;1.70;;
67965;SDS011;54749;47.850;9.002;2022-09-09T03:36:19;4.93;;;1.83;;
67965;SDS011;54749;47.850;9.002;2022-09-09T03:38:45;4.20;;;1.77;;
67965;SDS011;54749;47.850;9.002;2022-09-09T03:41:12;3.93;;;1.60;;
67965;SDS011;54749;47.850;9.002;2022-09-09T03:43:39;4.65;;;1.90;;
67965;SDS011;54749;47.850;9.002;2022-09-09T03:46:08;4.35;;;1.98;;
67965;SDS011;54749;47.850;9.002;2022-09-09T03:48:35;6.30;;;2.05;;
67965;SDS011;54749;47.850;9.002;2022-09-09T03:51:03;4.70;;;1.92;;
67965;SDS011;54749;47.850;9.002;2022-09-09T03:53:31;5.30;;;1.70;;
67965;SDS011;54749;47.850;9.002;2022-09-09T03:55:58;4.78;;;1.80;;
67965;SDS011;54749;47.850;9.002;2022-09-09T03:58:27;4.43;;;1.60;;
67965;SDS011;54749;47.850;9.002;2022-09-09T04:01:04;5.57;;;1.67;;
67965;SDS011;54749;47.850;9.002;2022-09-09T04:03:36;4.80;;;1.50;;
67965;SDS011;54749;47.850;9.002;2022-09-09T04:06:03;4.23;;;1.60;;
67965;SDS011;54749;47.850;9.002;2022-09-09T04:08:33;6.45;;;1.90;;
67965;SDS011;54749;47.850;9.002;2022-09-09T04:11:02;4.82;;;1.90;;
67965;SDS011;54749;47.850;9.002;2022-09-09T04:13:34;4.95;;;1.83;;
67965;SDS011;54749;47.850;9.002;2022-09-09T04:16:02;5.82;;;1.92;;
67965;SDS011;54749;47.850;9.002;2022-09-09T04:18:32;4.33;;;1.63;;
67965;SDS011;54749;47.850;9.002;2022-09-09T04:21:00;4.05;;;1.65;;
67965;SDS011;54749;47.850;9.002;2022-09-09T04:23:29;5.30;;;1.77;;
67965;SDS011;54749;47.850;9.002;2022-09-09T04:25:58;4.60;;;2.25;;
67965;SDS011;54749;47.850;9.002;2022-09-09T04:28:27;8.40;;;3.13;;
67965;SDS011;54749;47.850;9.002;2022-09-09T04:31:03;12.77;;;3.33;;
67965;SDS011;54749;47.850;9.002;2022-09-09T04:33:32;5.00;;;2.50;;
67965;SDS011;54749;47.850;9.002;2022-09-09T04:36:06;5.07;;;2.55;;
67965;SDS011;54749;47.850;9.002;2022-09-09T04:38:34;6.72;;;2.65;;
67965;SDS011;54749;47.850;9.002;2022-09-09T04:41:02;12.05;;;4.00;;
67965;SDS011;54749;47.850;9.002;2022-09-09T04:43:29;9.70;;;3.73;;
67965;SDS011;54749;47.850;9.002;2022-09-09T04:45:58;6.15;;;2.65;;
67965;SDS011;54749;47.850;9.002;2022-09-09T04:48:26;6.70;;;2.20;;
67965;SDS011;54749;47.850;9.002;2022-09-09T04:50:57;5.80;;;2.95;;
67965;SDS011;54749;47.850;9.002;2022-09-09T04:53:26;4.90;;;2.10;;
67965;SDS011;54749;47.850;9.002;2022-09-09T04:56:00;6.30;;;2.03;;
67965;SDS011;54749;47.850;9.002;2022-09-09T04:58:37;4.20;;;1.98;;
67965;SDS011;54749;47.850;9.002;2022-09-09T05:01:17;5.25;;;2.20;;
67965;SDS011;54749;47.850;9.002;2022-09-09T05:03:47;5.50;;;2.70;;
67965;SDS011;54749;47.850;9.002;2022-09-09T05:06:18;7.85;;;2.45;;
67965;SDS011;54749;47.850;9.002;2022-09-09T05:08:50;5.33;;;2.70;;
67965;SDS011;54749;47.850;9.002;2022-09-09T05:11:22;6.00;;;2.45;;
67965;SDS011;54749;47.850;9.002;2022-09-09T05:13:54;5.63;;;2.42;;
67965;SDS011;54749;47.850;9.002;2022-09-09T05:16:21;5.90;;;2.30;;
67965;SDS011;54749;47.850;9.002;2022-09-09T05:18:49;6.82;;;1.92;;
67965;SDS011;54749;47.850;9.002;2022-09-09T05:21:19;7.97;;;2.93;;
67965;SDS011;54749;47.850;9.002;2022-09-09T05:23:47;6.88;;;2.58;;
67965;SDS011;54749;47.850;9.002;2022-09-09T05:26:15;8.52;;;3.10;;
67965;SDS011;54749;47.850;9.002;2022-09-09T05:28:46;6.72;;;2.42;;
67965;SDS011;54749;47.850;9.002;2022-09-09T05:31:14;9.32;;;2.50;;
67965;SDS011;54749;47.850;9.002;2022-09-09T05:33:46;11.23;;;3.43;;
67965;SDS011;54749;47.850;9.002;2022-09-09T05:36:16;6.25;;;3.05;;
67965;SDS011;54749;47.850;9.002;2022-09-09T05:38:46;9.43;;;3.85;;
67965;SDS011;54749;47.850;9.002;2022-09-09T05:41:14;7.15;;;3.47;;
67965;SDS011;54749;47.850;9.002;2022-09-09T05:43:46;10.82;;;3.75;;
67965;SDS011;54749;47.850;9.002;2022-09-09T05:46:15;12.77;;;4.77;;
67965;SDS011;54749;47.850;9.002;2022-09-09T05:48:45;12.68;;;4.90;;
67965;SDS011;54749;47.850;9.002;2022-09-09T05:51:15;10.82;;;4.60;;
67965;SDS011;54749;47.850;9.002;2022-09-09T05:53:45;14.68;;;4.90;;
67965;SDS011;54749;47.850;9.002;2022-09-09T05:56:16;15.32;;;5.47;;
67965;SDS011;54749;47.850;9.002;2022-09-09T05:58:44;11.73;;;4.67;;
67965;SDS011;54749;47.850;9.002;2022-09-09T06:01:15;13.20;;;5.03;;
67965;SDS011;54749;47.850;9.002;2022-09-09T06:03:44;11.57;;;5.10;;
67965;SDS011;54749;47.850;9.002;2022-09-09T06:06:13;9.02;;;3.30;;
67965;SDS011;54749;47.850;9.002;2022-09-09T06:08:41;7.57;;;3.45;;
67965;SDS011;54749;47.850;9.002;2022-09-09T06:11:16;6.30;;;2.70;;
67965;SDS011;54749;47.850;9.002;2022-09-09T06:13:44;7.22;;;2.78;;
67965;SDS011;54749;47.850;9.002;2022-09-09T06:16:12;7.07;;;2.50;;
67965;SDS011;54749;47.850;9.002;2022-09-09T06:18:42;6.30;;;2.70;;
67965;SDS011;54749;47.850;9.002;2022-09-09T06:21:44;5.78;;;2.38;;
67965;SDS011;54749;47.850;9.002;2022-09-09T06:24:06;7.13;;;2.53;;
67965;SDS011;54749;47.850;9.002;2022-09-09T06:26:38;7.47;;;2.65;;
67965;SDS011;54749;47.850;9.002;2022-09-09T06:29:12;6.80;;;2.58;;
67965;SDS011;54749;47.850;9.002;2022-09-09T06:31:41;7.40;;;2.50;;
67965;SDS011;54749;47.850;9.002;2022-09-09T06:34:19;6.78;;;2.30;;
67965;SDS011;54749;47.850;9.002;2022-09-09T06:36:49;6.50;;;2.43;;
67965;SDS011;54749;47.850;9.002;2022-09-09T06:39:16;7.80;;;2.42;;
67965;SDS011;54749;47.850;9.002;2022-09-09T06:41:44;5.07;;;2.03;;
67965;SDS011;54749;47.850;9.002;2022-09-09T06:44:30;6.35;;;2.30;;
67965;SDS011;54749;47.850;9.002;2022-09-09T06:47:02;9.57;;;2.10;;
67965;SDS011;54749;47.850;9.002;2022-09-09T06:49:29;6.10;;;1.93;;
67965;SDS011;54749;47.850;9.002;2022-09-09T06:51:57;4.35;;;1.50;;
67965;SDS011;54749;47.850;9.002;2022-09-09T06:54:24;5.10;;;1.52;;
67965;SDS011;54749;47.850;9.002;2022-09-09T06:56:51;5.40;;;1.70;;
67965;SDS011;54749;47.850;9.002;2022-09-09T06:59:22;4.30;;;1.40;;
67965;SDS011;54749;47.850;9.002;2022-09-09T07:01:51;4.23;;;1.40;;
67965;SDS011;54749;47.850;9.002;2022-09-09T07:04:22;4.30;;;1.30;;
67965;SDS011;54749;47.850;9.002;2022-09-09T07:06:49;4.20;;;1.33;;
67965;SDS011;54749;47.850;9.002;2022-09-09T07:09:21;5.05;;;1.17;;
67965;SDS011;54749;47.850;9.002;2022-09-09T07:11:51;4.03;;;1.35;;
67965;SDS011;54749;47.850;9.002;2022-09-09T07:14:22;6.00;;;1.20;;
67965;SDS011;54749;47.850;9.002;2022-09-09T07:16:56;4.18;;;1.30;;
67965;SDS011;54749;47.850;9.002;2022-09-09T07:19:27;4.30;;;1.20;;
67965;SDS011;54749;47.850;9.002;2022-09-09T07:21:55;5.53;;;1.50;;
67965;SDS011;54749;47.850;9.002;2022-09-09T07:24:24;4.65;;;1.70;;
67965;SDS011;54749;47.850;9.002;2022-09-09T07:26:51;5.10;;;1.40;;
67965;SDS011;54749;47.850;9.002;2022-09-09T07:29:19;5.22;;;1.58;;
67965;SDS011;54749;47.850;9.002;2022-09-09T07:31:48;5.78;;;1.50;;
67965;SDS011;54749;47.850;9.002;2022-09-09T07:34:21;4.57;;;1.20;;
67965;SDS011;54749;47.850;9.002;2022-09-09T07:36:48;4.28;;;1.42;;
67965;SDS011;54749;47.850;9.002;2022-09-09T07:39:17;4.63;;;1.30;;
67965;SDS011;54749;47.850;9.002;2022-09-09T07:41:54;4.68;;;1.30;;
67965;SDS011;54749;47.850;9.002;2022-09-09T07:44:23;5.68;;;1.40;;
67965;SDS011;54749;47.850;9.002;2022-09-09T07:47:01;5.07;;;1.30;;
67965;SDS011;54749;47.850;9.002;2022-09-09T07:49:34;4.30;;;1.38;;
67965;SDS011;54749;47.850;9.002;2022-09-09T07:52:03;4.77;;;1.40;;
67965;SDS011;54749;47.850;9.002;2022-09-09T07:54:31;3.83;;;1.00;;
67965;SDS011;54749;47.850;9.002;2022-09-09T07:57:00;5.40;;;1.10;;
67965;SDS011;54749;47.850;9.002;2022-09-09T07:59:29;4.07;;;1.00;;
67965;SDS011;54749;47.850;9.002;2022-09-09T08:01:57;3.88;;;1.10;;
67965;SDS011;54749;47.850;9.002;2022-09-09T08:04:28;3.83;;;1.20;;
67965;SDS011;54749;47.850;9.002;2022-09-09T08:06:57;4.22;;;1.10;;
67965;SDS011;54749;47.850;9.002;2022-09-09T08:09:26;6.18;;;1.33;;
67965;SDS011;54749;47.850;9.002;2022-09-09T08:12:25;4.55;;;1.30;;
67965;SDS011;54749;47.850;9.002;2022-09-09T08:14:52;7.05;;;1.40;;
67965;SDS011;54749;47.850;9.002;2022-09-09T08:17:23;4.57;;;1.20;;
67965;SDS011;54749;47.850;9.002;2022-09-09T08:19:50;4.97;;;1.00;;
67965;SDS011;54749;47.850;9.002;2022-09-09T08:22:23;4.15;;;1.20;;
67965;SDS011;54749;47.850;9.002;2022-09-09T08:24:51;6.03;;;1.50;;
67965;SDS011;54749;47.850;9.002;2022-09-09T08:27:18;4.88;;;1.33;;
67965;SDS011;54749;47.850;9.002;2022-09-09T08:29:45;4.60;;;1.30;;
67965;SDS011;54749;47.850;9.002;2022-09-09T08:32:13;4.28;;;1.30;;
67965;SDS011;54749;47.850;9.002;2022-09-09T08:34:40;5.22;;;1.50;;
67965;SDS011;54749;47.850;9.002;2022-09-09T08:37:17;4.63;;;1.50;;
67965;SDS011;54749;47.850;9.002;2022-09-09T08:39:46;3.65;;;1.30;;
67965;SDS011;54749;47.850;9.002;2022-09-09T08:42:25;4.80;;;1.70;;
67965;SDS011;54749;47.850;9.002;2022-09-09T08:45:20;5.75;;;1.90;;
67965;SDS011;54749;47.850;9.002;2022-09-09T08:48:20;4.22;;;1.60;;
67965;SDS011;54749;47.850;9.002;2022-09-09T08:50:56;6.95;;;2.30;;
67965;SDS011;54749;47.850;9.002;2022-09-09T08:53:34;8.07;;;2.00;;
67965;SDS011;54749;47.850;9.002;2022-09-09T08:56:12;6.73;;;1.70;;
67965;SDS011;54749;47.850;9.002;2022-09-09T08:58:49;5.07;;;2.00;;
67965;SDS011;54749;47.850;9.002;2022-09-09T09:01:27;4.80;;;1.20;;
67965;SDS011;54749;47.850;9.002;2022-09-09T09:06:58;4.38;;;1.10;;
67965;SDS011;54749;47.850;9.002;2022-09-09T09:12:23;4.22;;;1.10;;
67965;SDS011;54749;47.850;9.002;2022-09-09T09:14:54;4.15;;;0.90;;
67965;SDS011;54749;47.850;9.002;2022-09-09T09:17:23;3.95;;;1.08;;
67965;SDS011;54749;47.850;9.002;2022-09-09T09:19:54;4.07;;;1.10;;
67965;SDS011;54749;47.850;9.002;2022-09-09T09:25:11;5.45;;;1.15;;
67965;SDS011;54749;47.850;9.002;2022-09-09T09:28:02;2.78;;;0.68;;
67965;SDS011;54749;47.850;9.002;2022-09-09T09:31:06;3.40;;;0.80;;
67965;SDS011;54749;47.850;9.002;2022-09-09T09:33:42;4.15;;;0.88;;
67965;SDS011;54749;47.850;9.002;2022-09-09T09:36:13;3.73;;;0.80;;
67965;SDS011;54749;47.850;9.002;2022-09-09T09:38:56;3.72;;;0.85;;
67965;SDS011;54749;47.850;9.002;2022-09-09T09:41:48;4.45;;;0.70;;
67965;SDS011;54749;47.850;9.002;2022-09-09T09:47:06;4.30;;;0.95;;
67965;SDS011;54749;47.850;9.002;2022-09-09T09:49:33;4.10;;;0.90;;
67965;SDS011;54749;47.850;9.002;2022-09-09T09:52:01;5.38;;;1.33;;
67965;SDS011;54749;47.850;9.002;2022-09-09T09:54:36;3.22;;;0.80;;
67965;SDS011;54749;47.850;9.002;2022-09-09T09:57:12;3.03;;;0.63;;
67965;SDS011;54749;47.850;9.002;2022-09-09T09:59:42;4.88;;;1.67;;
67965;SDS011;54749;47.850;9.002;2022-09-09T10:02:20;3.20;;;0.90;;
67965;SDS011;54749;47.850;9.002;2022-09-09T10:07:59;4.75;;;0.73;;
67965;SDS011;54749;47.850;9.002;2022-09-09T10:11:02;3.55;;;0.80;;
67965;SDS011;54749;47.850;9.002;2022-09-09T10:24:44;3.42;;;0.90;;
67965;SDS011;54749;47.850;9.002;2022-09-09T10:27:23;3.83;;;1.00;;
67965;SDS011;54749;47.850;9.002;2022-09-09T10:30:03;4.97;;;1.90;;
67965;SDS011;54749;47.850;9.002;2022-09-09T10:35:31;6.78;;;1.77;;
67965;SDS011;54749;47.850;9.002;2022-09-09T10:38:05;5.00;;;1.30;;
67965;SDS011;54749;47.850;9.002;2022-09-09T10:48:55;4.53;;;1.20;;
67965;SDS011;54749;47.850;9.002;2022-09-09T11:02:59;6.70;;;1.42;;
67965;SDS011;54749;47.850;9.002;2022-09-09T11:05:45;5.25;;;1.10;;
67965;SDS011;54749;47.850;9.002;2022-09-09T11:08:20;4.10;;;1.60;;
67965;SDS011;54749;47.850;9.002;2022-09-09T11:10:58;6.50;;;1.20;;
67965;SDS011;54749;47.850;9.002;2022-09-09T11:18:50;5.57;;;1.27;;
67965;SDS011;54749;47.850;9.002;2022-09-09T11:21:24;4.53;;;1.00;;
67965;SDS011;54749;47.850;9.002;2022-09-09T11:24:01;3.67;;;0.80;;
67965;SDS011;54749;47.850;9.002;2022-09-09T11:26:41;5.05;;;1.50;;
67965;SDS011;54749;47.850;9.002;2022-09-09T11:29:22;8.90;;;5.18;;
67965;SDS011;54749;47.850;9.002;2022-09-09T11:40:18;3.72;;;0.90;;
67965;SDS011;54749;47.850;9.002;2022-09-09T11:42:48;3.85;;;1.05;;
67965;SDS011;54749;47.850;9.002;2022-09-09T11:45:23;6.00;;;1.20;;
67965;SDS011;54749;47.850;9.002;2022-09-09T11:47:57;6.75;;;1.20;;
67965;SDS011;54749;47.850;9.002;2022-09-09T11:50:34;5.67;;;1.00;;
67965;SDS011;54749;47.850;9.002;2022-09-09T11:53:24;4.75;;;1.10;;
67965;SDS011;54749;47.850;9.002;2022-09-09T11:56:10;5.13;;;1.33;;
67965;SDS011;54749;47.850;9.002;2022-09-09T11:58:41;4.63;;;0.95;;
67965;SDS011;54749;47.850;9.002;2022-09-09T12:01:13;4.60;;;1.40;;
67965;SDS011;54749;47.850;9.002;2022-09-09T12:06:32;4.63;;;1.10;;
67965;SDS011;54749;47.850;9.002;2022-09-09T12:09:30;5.60;;;1.17;;
67965;SDS011;54749;47.850;9.002;2022-09-09T12:12:16;4.72;;;1.00;;
67965;SDS011;54749;47.850;9.002;2022-09-09T12:14:57;3.83;;;1.10;;
67965;SDS011;54749;47.850;9.002;2022-09-09T12:17:45;3.73;;;1.03;;
67965;SDS011;54749;47.850;9.002;2022-09-09T12:31:44;3.37;;;0.93;;
67965;SDS011;54749;47.850;9.002;2022-09-09T12:34:23;4.63;;;1.10;;
67965;SDS011;54749;47.850;9.002;2022-09-09T12:36:55;6.25;;;1.10;;
67965;SDS011;54749;47.850;9.002;2022-09-09T12:39:32;5.57;;;1.10;;
67965;SDS011;54749;47.850;9.002;2022-09-09T12:42:02;6.07;;;1.20;;
67965;SDS011;54749;47.850;9.002;2022-09-09T12:44:30;5.23;;;1.00;;
67965;SDS011;54749;47.850;9.002;2022-09-09T12:47:00;5.38;;;1.20;;
67965;SDS011;54749;47.850;9.002;2022-09-09T12:52:04;4.22;;;1.40;;
67965;SDS011;54749;47.850;9.002;2022-09-09T12:54:34;5.07;;;1.40;;
67965;SDS011;54749;47.850;9.002;2022-09-09T12:57:03;5.97;;;1.20;;
67965;SDS011;54749;47.850;9.002;2022-09-09T12:59:39;3.78;;;1.00;;
67965;SDS011;54749;47.850;9.002;2022-09-09T13:02:16;3.97;;;1.00;;
67965;SDS011;54749;47.850;9.002;2022-09-09T13:04:46;4.55;;;0.95;;
67965;SDS011;54749;47.850;9.002;2022-09-09T13:07:14;3.83;;;1.10;;
67965;SDS011;54749;47.850;9.002;2022-09-09T13:09:43;3.30;;;0.90;;
67965;SDS011;54749;47.850;9.002;2022-09-09T13:12:21;4.07;;;1.00;;
67965;SDS011;54749;47.850;9.002;2022-09-09T13:14:50;5.05;;;1.10;;
67965;SDS011;54749;47.850;9.002;2022-09-09T13:17:21;5.82;;;1.02;;
67965;SDS011;54749;47.850;9.002;2022-09-09T13:19:49;7.00;;;1.60;;
67965;SDS011;54749;47.850;9.002;2022-09-09T13:22:33;6.10;;;1.23;;
67965;SDS011;54749;47.850;9.002;2022-09-09T13:27:53;5.82;;;1.70;;
67965;SDS011;54749;47.850;9.002;2022-09-09T13:35:36;5.57;;;1.00;;
67965;SDS011;54749;47.850;9.002;2022-09-09T13:38:27;5.80;;;0.85;;
67965;SDS011;54749;47.850;9.002;2022-09-09T13:40:58;3.40;;;0.88;;
67965;SDS011;54749;47.850;9.002;2022-09-09T13:43:31;3.83;;;0.88;;
67965;SDS011;54749;47.850;9.002;2022-09-09T13:46:04;4.38;;;0.70;;
67965;SDS011;54749;47.850;9.002;2022-09-09T13:48:57;4.67;;;0.90;;
67965;SDS011;54749;47.850;9.002;2022-09-09T13:51:32;3.85;;;0.90;;
67965;SDS011;54749;47.850;9.002;2022-09-09T13:53:59;3.78;;;0.80;;
67965;SDS011;54749;47.850;9.002;2022-09-09T13:56:27;4.07;;;0.70;;
67965;SDS011;54749;47.850;9.002;2022-09-09T13:58:54;3.50;;;0.70;;
67965;SDS011;54749;47.850;9.002;2022-09-09T14:01:20;8.57;;;1.10;;
67965;SDS011;54749;47.850;9.002;2022-09-09T14:03:53;3.22;;;0.90;;
67965;SDS011;54749;47.850;9.002;2022-09-09T14:06:20;6.80;;;1.05;;
67965;SDS011;54749;47.850;9.002;2022-09-09T14:08:51;15.00;;;2.53;;
67965;SDS011;54749;47.850;9.002;2022-09-09T14:11:18;7.82;;;1.20;;
67965;SDS011;54749;47.850;9.002;2022-09-09T14:13:45;3.30;;;0.60;;
67965;SDS011;54749;47.850;9.002;2022-09-09T14:16:13;2.90;;;0.70;;
67965;SDS011;54749;47.850;9.002;2022-09-09T14:18:40;3.67;;;0.80;;
67965;SDS011;54749;47.850;9.002;2022-09-09T14:21:07;4.72;;;0.98;;
67965;SDS011;54749;47.850;9.002;2022-09-09T14:23:35;3.22;;;0.80;;
67965;SDS011;54749;47.850;9.002;2022-09-09T14:26:02;6.70;;;0.90;;
67965;SDS011;54749;47.850;9.002;2022-09-09T14:28:29;4.15;;;0.90;;
67965;SDS011;54749;47.850;9.002;2022-09-09T14:31:16;3.65;;;0.70;;
67965;SDS011;54749;47.850;9.002;2022-09-09T14:33:46;3.50;;;0.75;;
67965;SDS011;54749;47.850;9.002;2022-09-09T14:36:13;3.88;;;0.70;;
67965;SDS011;54749;47.850;9.002;2022-09-09T14:38:41;4.63;;;0.70;;
67965;SDS011;54749;47.850;9.002;2022-09-09T14:41:10;3.35;;;0.77;;
67965;SDS011;54749;47.850;9.002;2022-09-09T14:43:39;4.35;;;1.00;;
67965;SDS011;54749;47.850;9.002;2022-09-09T14:46:10;6.38;;;0.90;;
67965;SDS011;54749;47.850;9.002;2022-09-09T14:48:39;3.67;;;0.80;;
67965;SDS011;54749;47.850;9.002;2022-09-09T14:53:33;3.83;;;0.65;;
67965;SDS011;54749;47.850;9.002;2022-09-09T14:56:08;2.78;;;0.60;;
67965;SDS011;54749;47.850;9.002;2022-09-09T14:58:37;4.38;;;0.90;;
67965;SDS011;54749;47.850;9.002;2022-09-09T15:01:05;3.28;;;0.65;;
67965;SDS011;54749;47.850;9.002;2022-09-09T15:03:34;4.03;;;0.70;;
67965;SDS011;54749;47.850;9.002;2022-09-09T15:06:04;2.97;;;0.90;;
67965;SDS011;54749;47.850;9.002;2022-09-09T15:08:35;3.30;;;0.60;;
67965;SDS011;54749;47.850;9.002;2022-09-09T15:11:08;7.38;;;0.90;;
67965;SDS011;54749;47.850;9.002;2022-09-09T15:13:37;4.00;;;0.80;;
67965;SDS011;54749;47.850;9.002;2022-09-09T15:16:16;3.90;;;0.80;;
67965;SDS011;54749;47.850;9.002;2022-09-09T15:18:45;2.63;;;0.65;;
67965;SDS011;54749;47.850;9.002;2022-09-09T15:21:14;3.58;;;0.80;;
67965;SDS011;54749;47.850;9.002;2022-09-09T15:23:42;3.85;;;0.90;;
67965;SDS011;54749;47.850;9.002;2022-09-09T15:26:10;3.85;;;0.70;;
67965;SDS011;54749;47.850;9.002;2022-09-09T15:28:37;4.20;;;0.90;;
67965;SDS011;54749;47.850;9.002;2022-09-09T15:31:06;3.55;;;0.60;;
67965;SDS011;54749;47.850;9.002;2022-09-09T15:33:36;3.10;;;0.70;;
67965;SDS011;54749;47.850;9.002;2022-09-09T15:38:45;3.55;;;0.63;;
67965;SDS011;54749;47.850;9.002;2022-09-09T15:41:12;5.13;;;0.80;;
67965;SDS011;54749;47.850;9.002;2022-09-09T15:43:47;3.88;;;0.70;;
67965;SDS011;54749;47.850;9.002;2022-09-09T15:48:43;4.55;;;0.73;;
67965;SDS011;54749;47.850;9.002;2022-09-09T15:51:14;3.65;;;0.60;;
67965;SDS011;54749;47.850;9.002;2022-09-09T15:54:01;2.93;;;0.70;;
67965;SDS011;54749;47.850;9.002;2022-09-09T15:56:28;3.05;;;0.50;;
67965;SDS011;54749;47.850;9.002;2022-09-09T15:58:59;10.88;;;0.95;;
67965;SDS011;54749;47.850;9.002;2022-09-09T16:01:28;3.13;;;0.50;;
67965;SDS011;54749;47.850;9.002;2022-09-09T16:03:56;6.65;;;0.70;;
67965;SDS011;54749;47.850;9.002;2022-09-09T16:06:23;9.50;;;1.20;;
67965;SDS011;54749;47.850;9.002;2022-09-09T16:08:52;5.47;;;0.80;;
67965;SDS011;54749;47.850;9.002;2022-09-09T16:11:23;3.40;;;0.73;;
67965;SDS011;54749;47.850;9.002;2022-09-09T16:13:52;18.23;;;1.92;;
67965;SDS011;54749;47.850;9.002;2022-09-09T16:16:22;3.17;;;0.68;;
67965;SDS011;54749;47.850;9.002;2022-09-09T16:18:54;5.50;;;0.57;;
67965;SDS011;54749;47.850;9.002;2022-09-09T16:21:25;3.17;;;0.50;;
67965;SDS011;54749;47.850;9.002;2022-09-09T16:23:52;2.97;;;0.60;;
67965;SDS011;54749;47.850;9.002;2022-09-09T16:26:19;3.35;;;0.65;;
67965;SDS011;54749;47.850;9.002;2022-09-09T16:28:47;3.72;;;0.60;;
67965;SDS011;54749;47.850;9.002;2022-09-09T16:31:16;3.17;;;0.60;;
67965;SDS011;54749;47.850;9.002;2022-09-09T16:33:45;3.08;;;0.52;;
67965;SDS011;54749;47.850;9.002;2022-09-09T16:36:15;2.50;;;0.52;;
67965;SDS011;54749;47.850;9.002;2022-09-09T16:38:46;2.70;;;0.65;;
67965;SDS011;54749;47.850;9.002;2022-09-09T16:41:13;3.00;;;0.50;;
67965;SDS011;54749;47.850;9.002;2022-09-09T16:43:41;2.30;;;0.47;;
67965;SDS011;54749;47.850;9.002;2022-09-09T16:46:17;2.78;;;0.57;;
67965;SDS011;54749;47.850;9.002;2022-09-09T16:48:46;2.55;;;0.50;;
67965;SDS011;54749;47.850;9.002;2022-09-09T16:51:19;2.15;;;0.50;;
67965;SDS011;54749;47.850;9.002;2022-09-09T16:53:50;2.20;;;0.50;;
67965;SDS011;54749;47.850;9.002;2022-09-09T16:56:22;4.77;;;0.60;;
67965;SDS011;54749;47.850;9.002;2022-09-09T16:58:53;2.50;;;0.50;;
67965;SDS011;54749;47.850;9.002;2022-09-09T17:01:24;5.85;;;0.70;;
67965;SDS011;54749;47.850;9.002;2022-09-09T17:03:53;2.75;;;0.57;;
67965;SDS011;54749;47.850;9.002;2022-09-09T17:06:27;3.25;;;0.60;;
67965;SDS011;54749;47.850;9.002;2022-09-09T17:08:59;2.60;;;0.60;;
67965;SDS011;54749;47.850;9.002;2022-09-09T17:11:28;4.68;;;0.70;;
67965;SDS011;54749;47.850;9.002;2022-09-09T17:13:56;3.28;;;0.57;;
67965;SDS011;54749;47.850;9.002;2022-09-09T17:16:25;2.55;;;0.52;;
67965;SDS011;54749;47.850;9.002;2022-09-09T17:18:55;2.90;;;0.50;;
67965;SDS011;54749;47.850;9.002;2022-09-09T17:21:23;3.27;;;0.60;;
67965;SDS011;54749;47.850;9.002;2022-09-09T17:23:54;2.47;;;0.60;;
67965;SDS011;54749;47.850;9.002;2022-09-09T17:26:22;3.67;;;0.50;;
67965;SDS011;54749;47.850;9.002;2022-09-09T17:28:53;3.10;;;0.70;;